sensor_id;sensor_type;location;lat;lon;timestamp;P1;durP1;ratioP1;P2;durP2;ratioP2
70985;SDS011;58645;43.068;25.610;2023-04-03T00:01:15;4.90;;;2.72;;
70985;SDS011;58645;43.068;25.610;2023-04-03T00:03:41;4.93;;;2.63;;
70985;SDS011;58645;43.068;25.610;2023-04-03T00:06:08;3.47;;;2.33;;
70985;SDS011;58645;43.068;25.610;2023-04-03T00:08:36;5.85;;;4.00;;
70985;SDS011;58645;43.068;25.610;2023-04-03T00:11:02;4.95;;;2.80;;
70985;SDS011;58645;43.068;25.610;2023-04-03T00:13:28;5.55;;;2.92;;
70985;SDS011;58645;43.068;25.610;2023-04-03T00:15:54;5.30;;;2.80;;
70985;SDS011;58645;43.068;25.610;2023-04-03T00:18:21;5.80;;;3.55;;
70985;SDS011;58645;43.068;25.610;2023-04-03T00:20:47;4.65;;;3.00;;
70985;SDS011;58645;43.068;25.610;2023-04-03T00:23:13;5.50;;;3.05;;
70985;SDS011;58645;43.068;25.610;2023-04-03T00:25:39;4.75;;;2.90;;
70985;SDS011;58645;43.068;25.610;2023-04-03T00:28:05;4.25;;;2.95;;
70985;SDS011;58645;43.068;25.610;2023-04-03T00:30:31;5.82;;;3.28;;
70985;SDS011;58645;43.068;25.610;2023-04-03T00:32:57;5.65;;;3.00;;
70985;SDS011;58645;43.068;25.610;2023-04-03T00:35:23;3.42;;;2.58;;
70985;SDS011;58645;43.068;25.610;2023-04-03T00:37:53;4.45;;;2.50;;
70985;SDS011;58645;43.068;25.610;2023-04-03T00:40:20;4.35;;;2.55;;
70985;SDS011;58645;43.068;25.610;2023-04-03T00:42:54;4.95;;;3.53;;
70985;SDS011;58645;43.068;25.610;2023-04-03T00:48:05;5.18;;;3.20;;
70985;SDS011;58645;43.068;25.610;2023-04-03T00:50:34;5.10;;;2.92;;
70985;SDS011;58645;43.068;25.610;2023-04-03T00:53:03;6.13;;;4.10;;
70985;SDS011;58645;43.068;25.610;2023-04-03T00:55:30;5.00;;;4.10;;
70985;SDS011;58645;43.068;25.610;2023-04-03T01:00:25;5.28;;;3.08;;
70985;SDS011;58645;43.068;25.610;2023-04-03T01:02:52;6.53;;;3.72;;
70985;SDS011;58645;43.068;25.610;2023-04-03T01:05:18;4.88;;;2.90;;
70985;SDS011;58645;43.068;25.610;2023-04-03T01:07:45;5.75;;;3.22;;
70985;SDS011;58645;43.068;25.610;2023-04-03T01:10:13;4.78;;;2.95;;
70985;SDS011;58645;43.068;25.610;2023-04-03T01:12:42;4.85;;;2.92;;
70985;SDS011;58645;43.068;25.610;2023-04-03T01:15:14;5.05;;;2.53;;
70985;SDS011;58645;43.068;25.610;2023-04-03T01:17:44;5.82;;;3.30;;
70985;SDS011;58645;43.068;25.610;2023-04-03T01:28:21;6.18;;;3.22;;
70985;SDS011;58645;43.068;25.610;2023-04-03T01:33:49;6.65;;;3.65;;
70985;SDS011;58645;43.068;25.610;2023-04-03T01:36:18;9.00;;;3.58;;
70985;SDS011;58645;43.068;25.610;2023-04-03T01:38:49;7.97;;;4.90;;
70985;SDS011;58645;43.068;25.610;2023-04-03T01:41:16;7.70;;;4.50;;
70985;SDS011;58645;43.068;25.610;2023-04-03T01:43:42;8.00;;;4.82;;
70985;SDS011;58645;43.068;25.610;2023-04-03T01:46:09;7.15;;;3.83;;
70985;SDS011;58645;43.068;25.610;2023-04-03T01:48:34;6.28;;;4.50;;
70985;SDS011;58645;43.068;25.610;2023-04-03T01:51:00;8.35;;;4.63;;
70985;SDS011;58645;43.068;25.610;2023-04-03T01:53:26;8.90;;;5.25;;
70985;SDS011;58645;43.068;25.610;2023-04-03T01:55:52;8.05;;;5.43;;
70985;SDS011;58645;43.068;25.610;2023-04-03T01:58:17;7.93;;;4.40;;
70985;SDS011;58645;43.068;25.610;2023-04-03T02:00:43;8.75;;;5.88;;
70985;SDS011;58645;43.068;25.610;2023-04-03T02:03:09;8.20;;;5.32;;
70985;SDS011;58645;43.068;25.610;2023-04-03T02:05:35;7.97;;;4.90;;
70985;SDS011;58645;43.068;25.610;2023-04-03T02:08:01;8.38;;;4.00;;
70985;SDS011;58645;43.068;25.610;2023-04-03T02:10:27;5.68;;;4.15;;
70985;SDS011;58645;43.068;25.610;2023-04-03T02:12:52;7.78;;;5.03;;
70985;SDS011;58645;43.068;25.610;2023-04-03T02:15:18;5.95;;;3.60;;
70985;SDS011;58645;43.068;25.610;2023-04-03T02:17:44;5.25;;;3.63;;
70985;SDS011;58645;43.068;25.610;2023-04-03T02:20:10;7.43;;;3.50;;
70985;SDS011;58645;43.068;25.610;2023-04-03T02:22:36;5.57;;;3.33;;
70985;SDS011;58645;43.068;25.610;2023-04-03T02:25:02;4.80;;;3.88;;
70985;SDS011;58645;43.068;25.610;2023-04-03T02:27:28;9.38;;;4.15;;
70985;SDS011;58645;43.068;25.610;2023-04-03T02:29:53;5.72;;;3.13;;
70985;SDS011;58645;43.068;25.610;2023-04-03T02:32:19;4.95;;;3.33;;
70985;SDS011;58645;43.068;25.610;2023-04-03T02:34:45;7.03;;;3.90;;
70985;SDS011;58645;43.068;25.610;2023-04-03T02:37:11;6.63;;;4.18;;
70985;SDS011;58645;43.068;25.610;2023-04-03T02:39:36;5.55;;;3.78;;
70985;SDS011;58645;43.068;25.610;2023-04-03T02:42:02;5.47;;;3.63;;
70985;SDS011;58645;43.068;25.610;2023-04-03T02:44:28;5.10;;;3.05;;
70985;SDS011;58645;43.068;25.610;2023-04-03T02:46:54;6.25;;;4.25;;
70985;SDS011;58645;43.068;25.610;2023-04-03T02:49:20;6.50;;;4.10;;
70985;SDS011;58645;43.068;25.610;2023-04-03T02:51:46;8.48;;;5.03;;
70985;SDS011;58645;43.068;25.610;2023-04-03T02:54:12;5.75;;;3.88;;
70985;SDS011;58645;43.068;25.610;2023-04-03T02:56:38;5.82;;;3.42;;
70985;SDS011;58645;43.068;25.610;2023-04-03T02:59:04;5.10;;;3.65;;
70985;SDS011;58645;43.068;25.610;2023-04-03T03:01:30;5.72;;;3.85;;
70985;SDS011;58645;43.068;25.610;2023-04-03T03:03:57;7.28;;;3.70;;
70985;SDS011;58645;43.068;25.610;2023-04-03T03:06:28;6.03;;;3.60;;
70985;SDS011;58645;43.068;25.610;2023-04-03T03:08:54;8.27;;;4.93;;
70985;SDS011;58645;43.068;25.610;2023-04-03T03:11:19;6.95;;;4.63;;
70985;SDS011;58645;43.068;25.610;2023-04-03T03:13:46;6.75;;;4.85;;
70985;SDS011;58645;43.068;25.610;2023-04-03T03:16:12;7.40;;;3.97;;
70985;SDS011;58645;43.068;25.610;2023-04-03T03:18:37;7.30;;;5.07;;
70985;SDS011;58645;43.068;25.610;2023-04-03T03:21:03;8.70;;;4.35;;
70985;SDS011;58645;43.068;25.610;2023-04-03T03:23:30;8.73;;;4.45;;
70985;SDS011;58645;43.068;25.610;2023-04-03T03:25:57;8.13;;;4.18;;
70985;SDS011;58645;43.068;25.610;2023-04-03T03:28:25;7.15;;;4.72;;
70985;SDS011;58645;43.068;25.610;2023-04-03T03:30:51;7.75;;;3.92;;
70985;SDS011;58645;43.068;25.610;2023-04-03T03:33:17;7.63;;;4.28;;
70985;SDS011;58645;43.068;25.610;2023-04-03T03:35:44;5.45;;;4.28;;
70985;SDS011;58645;43.068;25.610;2023-04-03T03:38:10;5.72;;;3.28;;
70985;SDS011;58645;43.068;25.610;2023-04-03T03:40:36;5.75;;;4.22;;
70985;SDS011;58645;43.068;25.610;2023-04-03T03:43:02;5.45;;;4.30;;
70985;SDS011;58645;43.068;25.610;2023-04-03T03:45:28;7.55;;;4.80;;
70985;SDS011;58645;43.068;25.610;2023-04-03T03:47:53;6.60;;;3.42;;
70985;SDS011;58645;43.068;25.610;2023-04-03T03:50:19;5.18;;;3.08;;
70985;SDS011;58645;43.068;25.610;2023-04-03T03:52:45;6.32;;;3.92;;
70985;SDS011;58645;43.068;25.610;2023-04-03T03:55:11;8.35;;;4.30;;
70985;SDS011;58645;43.068;25.610;2023-04-03T03:57:37;6.57;;;4.07;;
70985;SDS011;58645;43.068;25.610;2023-04-03T04:00:03;8.27;;;4.32;;
70985;SDS011;58645;43.068;25.610;2023-04-03T04:02:29;6.20;;;4.13;;
70985;SDS011;58645;43.068;25.610;2023-04-03T04:04:55;6.32;;;4.40;;
70985;SDS011;58645;43.068;25.610;2023-04-03T04:07:21;5.47;;;3.55;;
70985;SDS011;58645;43.068;25.610;2023-04-03T04:09:47;5.40;;;3.50;;
70985;SDS011;58645;43.068;25.610;2023-04-03T04:12:13;6.50;;;3.75;;
70985;SDS011;58645;43.068;25.610;2023-04-03T04:14:39;6.40;;;3.55;;
70985;SDS011;58645;43.068;25.610;2023-04-03T04:17:05;4.95;;;3.65;;
70985;SDS011;58645;43.068;25.610;2023-04-03T04:19:31;4.90;;;3.15;;
70985;SDS011;58645;43.068;25.610;2023-04-03T04:21:58;7.38;;;4.32;;
70985;SDS011;58645;43.068;25.610;2023-04-03T04:24:23;7.25;;;4.50;;
70985;SDS011;58645;43.068;25.610;2023-04-03T04:26:49;6.78;;;3.83;;
70985;SDS011;58645;43.068;25.610;2023-04-03T04:29:15;7.88;;;5.28;;
70985;SDS011;58645;43.068;25.610;2023-04-03T04:31:41;4.85;;;3.58;;
70985;SDS011;58645;43.068;25.610;2023-04-03T04:34:06;4.43;;;3.28;;
70985;SDS011;58645;43.068;25.610;2023-04-03T04:36:32;6.20;;;2.58;;
70985;SDS011;58645;43.068;25.610;2023-04-03T04:38:58;4.78;;;2.75;;
70985;SDS011;58645;43.068;25.610;2023-04-03T04:41:24;7.03;;;4.25;;
70985;SDS011;58645;43.068;25.610;2023-04-03T04:43:51;6.00;;;3.50;;
70985;SDS011;58645;43.068;25.610;2023-04-03T04:46:17;6.60;;;3.67;;
70985;SDS011;58645;43.068;25.610;2023-04-03T04:48:43;5.45;;;3.17;;
70985;SDS011;58645;43.068;25.610;2023-04-03T04:51:09;5.03;;;2.85;;
70985;SDS011;58645;43.068;25.610;2023-04-03T04:53:36;5.30;;;3.80;;
70985;SDS011;58645;43.068;25.610;2023-04-03T04:56:02;8.80;;;3.03;;
70985;SDS011;58645;43.068;25.610;2023-04-03T04:58:28;5.43;;;3.45;;
70985;SDS011;58645;43.068;25.610;2023-04-03T05:01:01;4.82;;;3.00;;
70985;SDS011;58645;43.068;25.610;2023-04-03T05:03:28;7.68;;;2.95;;
70985;SDS011;58645;43.068;25.610;2023-04-03T05:05:54;4.45;;;3.33;;
70985;SDS011;58645;43.068;25.610;2023-04-03T05:08:20;6.20;;;3.50;;
70985;SDS011;58645;43.068;25.610;2023-04-03T05:10:46;5.40;;;3.50;;
70985;SDS011;58645;43.068;25.610;2023-04-03T05:13:12;5.60;;;3.15;;
70985;SDS011;58645;43.068;25.610;2023-04-03T05:15:38;5.53;;;3.90;;
70985;SDS011;58645;43.068;25.610;2023-04-03T05:18:03;6.55;;;4.20;;
70985;SDS011;58645;43.068;25.610;2023-04-03T05:20:30;5.82;;;3.80;;
70985;SDS011;58645;43.068;25.610;2023-04-03T05:22:56;6.60;;;3.85;;
70985;SDS011;58645;43.068;25.610;2023-04-03T05:25:22;4.75;;;3.38;;
70985;SDS011;58645;43.068;25.610;2023-04-03T05:27:48;8.77;;;3.83;;
70985;SDS011;58645;43.068;25.610;2023-04-03T05:30:15;8.55;;;3.85;;
70985;SDS011;58645;43.068;25.610;2023-04-03T05:32:41;4.50;;;3.50;;
70985;SDS011;58645;43.068;25.610;2023-04-03T05:35:08;9.02;;;3.53;;
70985;SDS011;58645;43.068;25.610;2023-04-03T05:37:35;5.95;;;3.90;;
70985;SDS011;58645;43.068;25.610;2023-04-03T05:40:01;7.10;;;3.90;;
70985;SDS011;58645;43.068;25.610;2023-04-03T05:42:28;7.45;;;4.03;;
70985;SDS011;58645;43.068;25.610;2023-04-03T05:44:54;10.57;;;4.80;;
70985;SDS011;58645;43.068;25.610;2023-04-03T05:47:20;8.38;;;5.82;;
70985;SDS011;58645;43.068;25.610;2023-04-03T05:49:46;11.10;;;6.80;;
70985;SDS011;58645;43.068;25.610;2023-04-03T05:52:23;10.07;;;5.28;;
70985;SDS011;58645;43.068;25.610;2023-04-03T05:54:55;5.45;;;4.65;;
70985;SDS011;58645;43.068;25.610;2023-04-03T05:57:21;7.22;;;4.43;;
70985;SDS011;58645;43.068;25.610;2023-04-03T05:59:47;5.70;;;4.30;;
70985;SDS011;58645;43.068;25.610;2023-04-03T06:02:18;4.53;;;3.88;;
70985;SDS011;58645;43.068;25.610;2023-04-03T06:04:47;6.57;;;3.33;;
70985;SDS011;58645;43.068;25.610;2023-04-03T06:07:17;5.45;;;3.65;;
70985;SDS011;58645;43.068;25.610;2023-04-03T06:09:48;3.80;;;2.92;;
70985;SDS011;58645;43.068;25.610;2023-04-03T06:12:16;8.23;;;5.30;;
70985;SDS011;58645;43.068;25.610;2023-04-03T06:14:42;8.13;;;5.25;;
70985;SDS011;58645;43.068;25.610;2023-04-03T06:17:08;11.05;;;5.38;;
70985;SDS011;58645;43.068;25.610;2023-04-03T06:19:34;8.40;;;5.25;;
70985;SDS011;58645;43.068;25.610;2023-04-03T06:22:01;11.32;;;6.43;;
70985;SDS011;58645;43.068;25.610;2023-04-03T06:24:28;15.98;;;5.90;;
70985;SDS011;58645;43.068;25.610;2023-04-03T06:26:54;11.32;;;6.50;;
70985;SDS011;58645;43.068;25.610;2023-04-03T06:29:20;14.70;;;5.88;;
70985;SDS011;58645;43.068;25.610;2023-04-03T06:31:46;9.70;;;6.00;;
70985;SDS011;58645;43.068;25.610;2023-04-03T06:34:12;13.52;;;8.35;;
70985;SDS011;58645;43.068;25.610;2023-04-03T06:36:38;7.88;;;5.30;;
70985;SDS011;58645;43.068;25.610;2023-04-03T06:39:05;9.57;;;6.00;;
70985;SDS011;58645;43.068;25.610;2023-04-03T06:41:32;10.85;;;5.85;;
70985;SDS011;58645;43.068;25.610;2023-04-03T06:43:58;9.95;;;5.72;;
70985;SDS011;58645;43.068;25.610;2023-04-03T06:46:25;7.47;;;4.93;;
70985;SDS011;58645;43.068;25.610;2023-04-03T06:48:51;8.18;;;4.80;;
70985;SDS011;58645;43.068;25.610;2023-04-03T06:51:19;7.93;;;4.15;;
70985;SDS011;58645;43.068;25.610;2023-04-03T06:53:50;6.97;;;3.15;;
70985;SDS011;58645;43.068;25.610;2023-04-03T06:56:17;6.13;;;3.55;;
70985;SDS011;58645;43.068;25.610;2023-04-03T06:58:44;4.93;;;2.63;;
70985;SDS011;58645;43.068;25.610;2023-04-03T07:01:11;5.63;;;3.28;;
70985;SDS011;58645;43.068;25.610;2023-04-03T07:03:39;4.45;;;3.30;;
70985;SDS011;58645;43.068;25.610;2023-04-03T07:06:06;7.53;;;3.30;;
70985;SDS011;58645;43.068;25.610;2023-04-03T07:08:33;5.40;;;3.88;;
70985;SDS011;58645;43.068;25.610;2023-04-03T07:10:59;6.55;;;3.30;;
70985;SDS011;58645;43.068;25.610;2023-04-03T07:13:26;8.50;;;4.75;;
70985;SDS011;58645;43.068;25.610;2023-04-03T07:15:52;7.38;;;4.05;;
70985;SDS011;58645;43.068;25.610;2023-04-03T07:18:18;11.63;;;5.75;;
70985;SDS011;58645;43.068;25.610;2023-04-03T07:20:44;8.55;;;5.45;;
70985;SDS011;58645;43.068;25.610;2023-04-03T07:23:10;12.10;;;6.57;;
70985;SDS011;58645;43.068;25.610;2023-04-03T07:25:36;8.77;;;5.25;;
70985;SDS011;58645;43.068;25.610;2023-04-03T07:28:06;7.95;;;3.55;;
70985;SDS011;58645;43.068;25.610;2023-04-03T07:30:33;6.78;;;3.30;;
70985;SDS011;58645;43.068;25.610;2023-04-03T07:32:58;6.28;;;5.05;;
70985;SDS011;58645;43.068;25.610;2023-04-03T07:35:24;14.55;;;9.10;;
70985;SDS011;58645;43.068;25.610;2023-04-03T07:37:50;17.67;;;11.43;;
70985;SDS011;58645;43.068;25.610;2023-04-03T07:40:16;18.08;;;13.75;;
70985;SDS011;58645;43.068;25.610;2023-04-03T07:42:42;16.77;;;12.95;;
70985;SDS011;58645;43.068;25.610;2023-04-03T07:45:07;14.90;;;12.15;;
70985;SDS011;58645;43.068;25.610;2023-04-03T07:47:34;15.52;;;11.00;;
70985;SDS011;58645;43.068;25.610;2023-04-03T07:50:00;16.30;;;12.40;;
70985;SDS011;58645;43.068;25.610;2023-04-03T07:52:25;10.40;;;7.53;;
70985;SDS011;58645;43.068;25.610;2023-04-03T07:54:51;8.05;;;6.30;;
70985;SDS011;58645;43.068;25.610;2023-04-03T07:57:17;4.03;;;3.03;;
70985;SDS011;58645;43.068;25.610;2023-04-03T07:59:43;5.20;;;3.33;;
70985;SDS011;58645;43.068;25.610;2023-04-03T08:02:09;5.78;;;4.85;;
70985;SDS011;58645;43.068;25.610;2023-04-03T08:04:36;4.88;;;4.00;;
70985;SDS011;58645;43.068;25.610;2023-04-03T08:07:01;10.68;;;9.18;;
70985;SDS011;58645;43.068;25.610;2023-04-03T08:09:27;9.82;;;7.88;;
70985;SDS011;58645;43.068;25.610;2023-04-03T08:11:53;7.60;;;6.13;;
70985;SDS011;58645;43.068;25.610;2023-04-03T08:14:19;7.07;;;6.30;;
70985;SDS011;58645;43.068;25.610;2023-04-03T08:16:45;7.95;;;6.20;;
70985;SDS011;58645;43.068;25.610;2023-04-03T08:19:12;6.72;;;4.95;;
70985;SDS011;58645;43.068;25.610;2023-04-03T08:24:08;6.53;;;5.40;;
70985;SDS011;58645;43.068;25.610;2023-04-03T08:26:34;7.28;;;4.80;;
70985;SDS011;58645;43.068;25.610;2023-04-03T08:29:00;8.13;;;5.78;;
70985;SDS011;58645;43.068;25.610;2023-04-03T08:31:26;6.43;;;5.30;;
70985;SDS011;58645;43.068;25.610;2023-04-03T08:33:52;4.70;;;3.35;;
70985;SDS011;58645;43.068;25.610;2023-04-03T08:36:19;4.47;;;3.10;;
70985;SDS011;58645;43.068;25.610;2023-04-03T08:38:47;4.95;;;3.33;;
70985;SDS011;58645;43.068;25.610;2023-04-03T08:44:10;2.75;;;2.03;;
70985;SDS011;58645;43.068;25.610;2023-04-03T08:49:40;6.90;;;2.00;;
70985;SDS011;58645;43.068;25.610;2023-04-03T08:52:27;1.17;;;1.05;;
70985;SDS011;58645;43.068;25.610;2023-04-03T08:55:43;1.30;;;0.98;;
70985;SDS011;58645;43.068;25.610;2023-04-03T08:57:48;1.33;;;1.13;;
70985;SDS011;58645;43.068;25.610;2023-04-03T09:00:22;2.55;;;1.25;;
70985;SDS011;58645;43.068;25.610;2023-04-03T09:02:51;2.15;;;1.15;;
70985;SDS011;58645;43.068;25.610;2023-04-03T09:05:34;1.45;;;1.23;;
70985;SDS011;58645;43.068;25.610;2023-04-03T09:11:24;2.83;;;1.40;;
70985;SDS011;58645;43.068;25.610;2023-04-03T09:14:00;2.50;;;1.45;;
70985;SDS011;58645;43.068;25.610;2023-04-03T09:17:14;3.35;;;1.90;;
70985;SDS011;58645;43.068;25.610;2023-04-03T09:19:52;2.53;;;1.38;;
70985;SDS011;58645;43.068;25.610;2023-04-03T09:22:24;4.90;;;1.92;;
70985;SDS011;58645;43.068;25.610;2023-04-03T09:24:58;3.13;;;2.15;;
70985;SDS011;58645;43.068;25.610;2023-04-03T09:27:46;2.35;;;1.58;;
70985;SDS011;58645;43.068;25.610;2023-04-03T09:30:16;3.35;;;1.80;;
70985;SDS011;58645;43.068;25.610;2023-04-03T09:32:45;3.22;;;1.35;;
70985;SDS011;58645;43.068;25.610;2023-04-03T09:35:28;2.03;;;1.35;;
70985;SDS011;58645;43.068;25.610;2023-04-03T09:45:51;2.28;;;1.77;;
70985;SDS011;58645;43.068;25.610;2023-04-03T09:48:20;4.30;;;2.05;;
70985;SDS011;58645;43.068;25.610;2023-04-03T09:53:39;2.75;;;1.92;;
70985;SDS011;58645;43.068;25.610;2023-04-03T09:56:18;3.30;;;2.38;;
70985;SDS011;58645;43.068;25.610;2023-04-03T09:58:48;2.47;;;2.10;;
70985;SDS011;58645;43.068;25.610;2023-04-03T10:03:46;2.40;;;1.80;;
70985;SDS011;58645;43.068;25.610;2023-04-03T10:09:32;4.20;;;1.77;;
70985;SDS011;58645;43.068;25.610;2023-04-03T10:12:11;2.55;;;1.38;;
70985;SDS011;58645;43.068;25.610;2023-04-03T10:15:00;1.75;;;1.38;;
70985;SDS011;58645;43.068;25.610;2023-04-03T10:17:32;2.08;;;1.50;;
70985;SDS011;58645;43.068;25.610;2023-04-03T10:20:04;3.17;;;1.70;;
70985;SDS011;58645;43.068;25.610;2023-04-03T10:22:52;2.15;;;1.60;;
70985;SDS011;58645;43.068;25.610;2023-04-03T10:25:36;2.20;;;1.58;;
70985;SDS011;58645;43.068;25.610;2023-04-03T10:30:56;5.03;;;1.38;;
70985;SDS011;58645;43.068;25.610;2023-04-03T10:36:07;2.40;;;1.50;;
70985;SDS011;58645;43.068;25.610;2023-04-03T10:39:02;2.28;;;1.48;;
70985;SDS011;58645;43.068;25.610;2023-04-03T10:52:25;1.98;;;1.50;;
70985;SDS011;58645;43.068;25.610;2023-04-03T10:57:26;3.47;;;1.38;;
70985;SDS011;58645;43.068;25.610;2023-04-03T11:02:49;1.95;;;1.52;;
70985;SDS011;58645;43.068;25.610;2023-04-03T11:08:24;1.67;;;1.30;;
70985;SDS011;58645;43.068;25.610;2023-04-03T11:10:51;2.38;;;1.50;;
70985;SDS011;58645;43.068;25.610;2023-04-03T11:13:37;3.17;;;1.50;;
70985;SDS011;58645;43.068;25.610;2023-04-03T11:16:07;3.28;;;1.30;;
70985;SDS011;58645;43.068;25.610;2023-04-03T11:18:44;2.13;;;1.13;;
70985;SDS011;58645;43.068;25.610;2023-04-03T11:23:54;1.90;;;1.10;;
70985;SDS011;58645;43.068;25.610;2023-04-03T11:26:24;3.42;;;1.25;;
70985;SDS011;58645;43.068;25.610;2023-04-03T11:28:56;1.77;;;1.30;;
70985;SDS011;58645;43.068;25.610;2023-04-03T11:36:49;1.63;;;1.30;;
70985;SDS011;58645;43.068;25.610;2023-04-03T11:39:39;1.67;;;1.30;;
70985;SDS011;58645;43.068;25.610;2023-04-03T11:44:42;3.47;;;1.40;;
70985;SDS011;58645;43.068;25.610;2023-04-03T11:47:09;1.40;;;1.30;;
70985;SDS011;58645;43.068;25.610;2023-04-03T11:52:56;2.17;;;1.40;;
70985;SDS011;58645;43.068;25.610;2023-04-03T12:13:40;2.00;;;0.90;;
70985;SDS011;58645;43.068;25.610;2023-04-03T12:37:38;2.20;;;0.80;;
70985;SDS011;58645;43.068;25.610;2023-04-03T12:46:14;0.90;;;0.80;;
70985;SDS011;58645;43.068;25.610;2023-04-03T12:48:47;2.80;;;1.02;;
70985;SDS011;58645;43.068;25.610;2023-04-03T12:51:32;2.10;;;1.02;;
70985;SDS011;58645;43.068;25.610;2023-04-03T12:54:04;3.92;;;1.15;;
70985;SDS011;58645;43.068;25.610;2023-04-03T12:56:45;1.45;;;0.82;;
70985;SDS011;58645;43.068;25.610;2023-04-03T12:59:21;1.52;;;0.90;;
70985;SDS011;58645;43.068;25.610;2023-04-03T13:01:59;1.85;;;1.13;;
70985;SDS011;58645;43.068;25.610;2023-04-03T13:04:30;2.20;;;1.23;;
70985;SDS011;58645;43.068;25.610;2023-04-03T13:07:17;2.15;;;1.08;;
70985;SDS011;58645;43.068;25.610;2023-04-03T13:10:23;2.88;;;0.90;;
70985;SDS011;58645;43.068;25.610;2023-04-03T13:13:06;3.25;;;1.10;;
70985;SDS011;58645;43.068;25.610;2023-04-03T13:15:44;2.65;;;1.10;;
70985;SDS011;58645;43.068;25.610;2023-04-03T13:18:25;1.58;;;0.73;;
70985;SDS011;58645;43.068;25.610;2023-04-03T13:20:53;3.75;;;1.27;;
70985;SDS011;58645;43.068;25.610;2023-04-03T13:25:51;1.23;;;1.10;;
70985;SDS011;58645;43.068;25.610;2023-04-03T13:28:20;1.85;;;0.98;;
70985;SDS011;58645;43.068;25.610;2023-04-03T13:31:22;1.80;;;1.10;;
70985;SDS011;58645;43.068;25.610;2023-04-03T13:36:45;3.10;;;1.80;;
70985;SDS011;58645;43.068;25.610;2023-04-03T13:39:22;2.50;;;1.58;;
70985;SDS011;58645;43.068;25.610;2023-04-03T13:41:49;2.65;;;1.52;;
70985;SDS011;58645;43.068;25.610;2023-04-03T13:44:28;3.15;;;1.48;;
70985;SDS011;58645;43.068;25.610;2023-04-03T13:49:39;2.28;;;1.50;;
70985;SDS011;58645;43.068;25.610;2023-04-03T13:55:23;2.10;;;1.50;;
70985;SDS011;58645;43.068;25.610;2023-04-03T14:03:28;5.85;;;2.00;;
70985;SDS011;58645;43.068;25.610;2023-04-03T14:06:30;4.07;;;1.80;;
70985;SDS011;58645;43.068;25.610;2023-04-03T14:08:56;5.05;;;1.95;;
70985;SDS011;58645;43.068;25.610;2023-04-03T14:11:22;3.42;;;2.00;;
70985;SDS011;58645;43.068;25.610;2023-04-03T14:14:02;5.07;;;2.65;;
70985;SDS011;58645;43.068;25.610;2023-04-03T14:16:36;3.67;;;2.65;;
70985;SDS011;58645;43.068;25.610;2023-04-03T14:19:06;5.30;;;2.80;;
70985;SDS011;58645;43.068;25.610;2023-04-03T14:21:32;5.28;;;3.33;;
70985;SDS011;58645;43.068;25.610;2023-04-03T14:23:58;3.38;;;2.53;;
70985;SDS011;58645;43.068;25.610;2023-04-03T14:26:24;3.97;;;2.55;;
70985;SDS011;58645;43.068;25.610;2023-04-03T14:28:52;6.97;;;4.38;;
70985;SDS011;58645;43.068;25.610;2023-04-03T14:31:20;6.78;;;4.10;;
70985;SDS011;58645;43.068;25.610;2023-04-03T14:33:47;5.70;;;3.85;;
70985;SDS011;58645;43.068;25.610;2023-04-03T14:36:26;5.22;;;2.95;;
70985;SDS011;58645;43.068;25.610;2023-04-03T14:38:53;4.00;;;2.80;;
70985;SDS011;58645;43.068;25.610;2023-04-03T14:41:20;3.50;;;2.55;;
70985;SDS011;58645;43.068;25.610;2023-04-03T14:43:48;3.53;;;2.42;;
70985;SDS011;58645;43.068;25.610;2023-04-03T14:46:20;4.13;;;3.10;;
70985;SDS011;58645;43.068;25.610;2023-04-03T14:48:58;4.70;;;2.78;;
70985;SDS011;58645;43.068;25.610;2023-04-03T14:51:24;3.55;;;2.83;;
70985;SDS011;58645;43.068;25.610;2023-04-03T14:53:51;4.00;;;2.80;;
70985;SDS011;58645;43.068;25.610;2023-04-03T14:56:24;5.22;;;3.33;;
70985;SDS011;58645;43.068;25.610;2023-04-03T14:58:54;5.45;;;2.92;;
70985;SDS011;58645;43.068;25.610;2023-04-03T15:01:22;5.55;;;3.25;;
70985;SDS011;58645;43.068;25.610;2023-04-03T15:03:48;4.68;;;2.90;;
70985;SDS011;58645;43.068;25.610;2023-04-03T15:06:15;3.60;;;2.83;;
70985;SDS011;58645;43.068;25.610;2023-04-03T15:08:41;4.72;;;3.30;;
70985;SDS011;58645;43.068;25.610;2023-04-03T15:11:09;5.10;;;3.50;;
70985;SDS011;58645;43.068;25.610;2023-04-03T15:13:36;4.70;;;3.60;;
70985;SDS011;58645;43.068;25.610;2023-04-03T15:16:03;5.55;;;3.90;;
70985;SDS011;58645;43.068;25.610;2023-04-03T15:18:41;7.03;;;4.18;;
70985;SDS011;58645;43.068;25.610;2023-04-03T15:21:07;6.45;;;4.30;;
70985;SDS011;58645;43.068;25.610;2023-04-03T15:23:32;5.97;;;3.85;;
70985;SDS011;58645;43.068;25.610;2023-04-03T15:25:58;6.45;;;4.75;;
70985;SDS011;58645;43.068;25.610;2023-04-03T15:28:28;6.00;;;3.65;;
70985;SDS011;58645;43.068;25.610;2023-04-03T15:30:57;6.25;;;4.07;;
70985;SDS011;58645;43.068;25.610;2023-04-03T15:33:24;6.75;;;4.55;;
70985;SDS011;58645;43.068;25.610;2023-04-03T15:35:50;6.97;;;4.97;;
70985;SDS011;58645;43.068;25.610;2023-04-03T15:38:16;6.10;;;4.57;;
70985;SDS011;58645;43.068;25.610;2023-04-03T15:40:42;9.07;;;4.97;;
70985;SDS011;58645;43.068;25.610;2023-04-03T15:43:09;14.35;;;7.05;;
70985;SDS011;58645;43.068;25.610;2023-04-03T15:48:02;7.20;;;5.07;;
70985;SDS011;58645;43.068;25.610;2023-04-03T15:50:30;9.07;;;6.22;;
70985;SDS011;58645;43.068;25.610;2023-04-03T15:52:57;7.32;;;5.50;;
70985;SDS011;58645;43.068;25.610;2023-04-03T15:55:26;8.25;;;5.35;;
70985;SDS011;58645;43.068;25.610;2023-04-03T15:57:54;11.60;;;6.47;;
70985;SDS011;58645;43.068;25.610;2023-04-03T16:00:21;9.07;;;5.05;;
70985;SDS011;58645;43.068;25.610;2023-04-03T16:02:49;8.52;;;4.38;;
70985;SDS011;58645;43.068;25.610;2023-04-03T16:05:18;6.35;;;3.90;;
70985;SDS011;58645;43.068;25.610;2023-04-03T16:07:45;4.63;;;3.80;;
70985;SDS011;58645;43.068;25.610;2023-04-03T16:10:12;5.40;;;4.05;;
70985;SDS011;58645;43.068;25.610;2023-04-03T16:12:39;7.03;;;4.15;;
70985;SDS011;58645;43.068;25.610;2023-04-03T16:15:05;6.50;;;4.80;;
70985;SDS011;58645;43.068;25.610;2023-04-03T16:17:31;7.93;;;4.47;;
70985;SDS011;58645;43.068;25.610;2023-04-03T16:19:58;6.93;;;4.50;;
70985;SDS011;58645;43.068;25.610;2023-04-03T16:22:25;7.25;;;4.07;;
70985;SDS011;58645;43.068;25.610;2023-04-03T16:24:52;6.38;;;4.00;;
70985;SDS011;58645;43.068;25.610;2023-04-03T16:27:19;6.32;;;3.97;;
70985;SDS011;58645;43.068;25.610;2023-04-03T16:29:45;5.90;;;4.65;;
70985;SDS011;58645;43.068;25.610;2023-04-03T16:32:11;6.25;;;4.78;;
70985;SDS011;58645;43.068;25.610;2023-04-03T16:34:37;7.93;;;5.18;;
70985;SDS011;58645;43.068;25.610;2023-04-03T16:37:05;8.25;;;4.20;;
70985;SDS011;58645;43.068;25.610;2023-04-03T16:39:33;4.32;;;2.88;;
70985;SDS011;58645;43.068;25.610;2023-04-03T16:42:00;4.72;;;3.42;;
70985;SDS011;58645;43.068;25.610;2023-04-03T16:44:25;5.80;;;4.28;;
70985;SDS011;58645;43.068;25.610;2023-04-03T16:46:51;5.13;;;3.38;;
70985;SDS011;58645;43.068;25.610;2023-04-03T16:49:17;6.60;;;3.88;;
70985;SDS011;58645;43.068;25.610;2023-04-03T16:51:43;6.05;;;3.95;;
70985;SDS011;58645;43.068;25.610;2023-04-03T16:54:09;5.72;;;3.63;;
70985;SDS011;58645;43.068;25.610;2023-04-03T16:56:36;7.55;;;4.88;;
70985;SDS011;58645;43.068;25.610;2023-04-03T16:59:02;7.35;;;4.82;;
70985;SDS011;58645;43.068;25.610;2023-04-03T17:01:28;5.15;;;3.80;;
70985;SDS011;58645;43.068;25.610;2023-04-03T17:03:53;9.35;;;4.93;;
70985;SDS011;58645;43.068;25.610;2023-04-03T17:06:20;10.85;;;6.65;;
70985;SDS011;58645;43.068;25.610;2023-04-03T17:08:48;10.60;;;5.88;;
70985;SDS011;58645;43.068;25.610;2023-04-03T17:11:15;5.13;;;4.50;;